This demonstration page uses our WeatherBlox Daily Observations layout. Learn more.

39.92423, -83.80882

Hourly Observations for April 1, 2019

Temp ( °F °C ) Dew Point ( °F °C ) Humidity (%) Winds ( mph kmh ) Pressure ( in mb ) Visibility ( mi km ) Precip ( " mm )
12:56 am 00:56 Clear 26 -3.3 20 -6.7 78 78 WNW 6 9 30.4 1029 10 16.0934 0 0
1:56 am 01:56 Clear 26 -3.3 21 -6.1 81 81 WSW 6 9 30.4 1030 10 16.0934 0 0
2:56 am 02:56 Clear 24 -4.4 20 -6.7 84 84 WNW 7 11 30.39 1029 10 16.0934 0 0
3:56 am 03:56 Clear 23 -5 19 -7.2 85 85 NW 5 7 30.38 1029 10 16.0934 0 0
4:56 am 04:56 Clear 23 -5 20 -6.7 88 88 WNW 3 6 30.38 1029 10 16.0934 0 0
5:56 am 05:56 Clear 22 -5.6 19 -7.2 89 89 NNW 5 7 30.39 1029 10 16.0934 0 0
6:56 am 06:56 Clear 21 -6.1 19 -7.2 92 92 Calm 30.4 1029 10 16.0934 0 0
7:56 am 07:56 Sunny 23 -5 20 -6.7 88 88 Calm 30.41 1030 10 16.0934 0 0
8:56 am 08:56 Sunny 27 -2.8 20 -6.7 75 75 Calm 30.43 1030 10 16.0934 0 0
9:56 am 09:56 Sunny 30 -1.1 20 -6.7 66 66 Calm 30.44 1031 10 16.0934 0 0
10:56 am 10:56 Sunny 33 0.6 15 -9.4 47 47 VRB 5 7 30.45 1031 10 16.0934 0 0
11:56 am 11:56 Sunny 34 1.1 15 -9.4 46 46 E 6 9 30.44 1031 10 16.0934 0 0
12:56 pm 12:56 Sunny 36 2.2 19 -7.2 50 50 ESE 9 15 30.42 1030 10 16.0934 0 0
1:56 pm 13:56 Sunny 37 2.8 20 -6.7 50 50 Calm 30.41 1030 10 16.0934 0 0
2:56 pm 14:56 Sunny 39 3.9 22 -5.6 50 50 ESE 5 7 30.38 1029 10 16.0934 0 0
3:56 pm 15:56 Sunny 39 3.9 20 -6.7 46 46 VRB 3 6 30.36 1028 10 16.0934 0 0
4:56 pm 16:56 Sunny 41 5 21 -6.1 45 45 Calm 30.33 1027 10 16.0934 0 0
5:56 pm 17:56 Sunny 41 5 22 -5.6 47 47 E 3 6 30.32 1027 10 16.0934 0 0
6:56 pm 18:56 Sunny 40 4.4 23 -5 51 51 SSE 6 9 30.3 1026 10 16.0934 0 0
7:56 pm 19:56 Sunny 37 2.8 24 -4.4 59 59 SE 7 11 30.3 1026 10 16.0934 0 0
8:56 pm 20:56 Clear 34 1.1 25 -3.9 70 70 SE 6 9 30.29 1026 10 16.0934 0 0
9:56 pm 21:56 Clear 31 -0.6 26 -3.3 82 82 ESE 6 9 30.29 1026 10 16.0934 0 0
10:56 pm 22:56 Clear 32 0 26 -3.3 79 79 SE 6 9 30.28 1025 10 16.0934 0 0
11:56 pm 23:56 Clear 34 1.1 23 -5 64 64 SSE 6 9 30.26 1025 10 16.0934 0 0

Powered by AerisWeather